createdAt,value
2022-09-17T00:00:39.286Z,97762.91
2022-09-17T00:03:06.850Z,97759.38
2022-09-17T00:05:33.900Z,97762.41
2022-09-17T00:08:00.491Z,97757.31
2022-09-17T00:10:27.098Z,97750.44
2022-09-17T00:12:53.716Z,97747.22
2022-09-17T00:15:20.333Z,97743.84
2022-09-17T00:17:47.045Z,97741.19
2022-09-17T00:20:13.789Z,97743.28
2022-09-17T00:22:41.323Z,97748.28
2022-09-17T00:25:08.693Z,97748.59
2022-09-17T00:27:35.534Z,97756.22
2022-09-17T00:30:02.212Z,97751.75
2022-09-17T00:32:28.820Z,97750.63
2022-09-17T00:34:55.369Z,97755.19
2022-09-17T00:37:22.615Z,97753.56
2022-09-17T00:39:49.210Z,97739.47
2022-09-17T00:42:17.668Z,97747.66
2022-09-17T00:44:49.103Z,97747.09
2022-09-17T00:47:24.707Z,97749.56
2022-09-17T00:50:10.766Z,97747.22
2022-09-17T00:52:45.913Z,97745.81
2022-09-17T00:55:16.174Z,97739.47
2022-09-17T00:57:43.410Z,97745.28
2022-09-17T01:00:10.633Z,97743.72
2022-09-17T01:02:37.693Z,97754.09
2022-09-17T01:05:04.540Z,97748.22
2022-09-17T01:07:31.060Z,97746.88
2022-09-17T01:10:13.025Z,97753.47
2022-09-17T01:12:54.884Z,97753.69
2022-09-17T01:15:41.794Z,97755.94
2022-09-17T01:18:32.254Z,97754.03
2022-09-17T01:21:34.417Z,97752.59
2022-09-17T01:24:22.304Z,97747.22
2022-09-17T01:27:19.474Z,97744.53
2022-09-17T01:30:16.526Z,97737.25
2022-09-17T01:32:46.268Z,97750.00
2022-09-17T01:35:32.415Z,97751.50
2022-09-17T01:38:15.872Z,97740.69
2022-09-17T01:40:54.031Z,97745.75
2022-09-17T01:43:25.268Z,97742.00
2022-09-17T01:45:57.538Z,97739.97
2022-09-17T01:48:29.806Z,97741.72
2022-09-17T01:51:04.364Z,97737.91
2022-09-17T01:53:41.213Z,97735.09
2022-09-17T01:56:10.759Z,97731.88
2022-09-17T01:58:46.104Z,97728.97
2022-09-17T02:01:17.503Z,97727.44
2022-09-17T02:03:51.436Z,97724.66
2022-09-17T02:06:23.719Z,97723.66
2022-09-17T02:09:02.780Z,97714.34
2022-09-17T02:11:30.824Z,97732.72
2022-09-17T02:14:00.227Z,97731.56
2022-09-17T02:16:30.763Z,97735.06
2022-09-17T02:19:16.869Z,97734.28
2022-09-17T02:22:02.021Z,97743.72
2022-09-17T02:24:50.746Z,97743.16
2022-09-17T02:27:29.510Z,97737.78
2022-09-17T02:29:56.073Z,97730.47
2022-09-17T02:32:24.871Z,97725.69
2022-09-17T02:34:51.648Z,97724.59
2022-09-17T02:37:18.352Z,97720.63
2022-09-17T02:39:44.931Z,97719.22
2022-09-17T02:42:33.824Z,97708.25
2022-09-17T02:45:07.611Z,97697.28
2022-09-17T02:47:57.841Z,97697.59
2022-09-17T02:50:54.309Z,97692.34
2022-09-17T02:53:36.464Z,97683.75
2022-09-17T02:56:11.466Z,97684.06
2022-09-17T02:58:57.669Z,97671.06
2022-09-17T03:01:32.855Z,97676.44
2022-09-17T03:04:02.645Z,97677.78
2022-09-17T03:06:30.055Z,97671.47
2022-09-17T03:08:57.306Z,97665.56
2022-09-17T03:11:24.697Z,97659.59
2022-09-17T03:13:52.015Z,97666.75
2022-09-17T03:16:18.780Z,97670.75
2022-09-17T03:18:45.389Z,97676.38
2022-09-17T03:21:12.668Z,97662.25
2022-09-17T03:23:39.495Z,97654.38
2022-09-17T03:26:06.239Z,97650.38
2022-09-17T03:28:32.806Z,97660.19
2022-09-17T03:30:59.443Z,97674.22
2022-09-17T03:33:26.084Z,97669.47
2022-09-17T03:35:52.635Z,97657.94
2022-09-17T03:38:19.262Z,97658.00
2022-09-17T03:40:57.262Z,97664.03
2022-09-17T03:43:23.892Z,97691.81
2022-09-17T03:45:50.465Z,97701.41
2022-09-17T03:48:17.039Z,97707.53
2022-09-17T03:50:43.765Z,97716.03
2022-09-17T03:53:11.243Z,97703.09
2022-09-17T03:55:39.906Z,97705.41
2022-09-17T03:58:06.852Z,97706.28
2022-09-17T04:00:33.806Z,97704.13
2022-09-17T04:03:00.401Z,97721.31
2022-09-17T04:05:26.985Z,97713.31
2022-09-17T04:07:53.584Z,97712.09
2022-09-17T04:10:20.145Z,97712.25
2022-09-17T04:12:47.341Z,97703.34
2022-09-17T04:15:13.978Z,97700.56
2022-09-17T04:17:40.588Z,97704.56
2022-09-17T04:20:07.955Z,97698.81
2022-09-17T04:22:34.594Z,97702.22
2022-09-17T04:25:01.279Z,97698.75
2022-09-17T04:27:27.856Z,97704.31
2022-09-17T04:29:54.439Z,97697.41
2022-09-17T04:32:21.024Z,97697.03
2022-09-17T04:34:47.549Z,97699.75
2022-09-17T04:37:14.153Z,97709.06
2022-09-17T04:39:40.716Z,97706.44
2022-09-17T04:42:07.328Z,97713.13
2022-09-17T04:44:33.899Z,97709.88
2022-09-17T04:47:00.609Z,97711.28
2022-09-17T04:49:29.849Z,97733.47
2022-09-17T04:51:59.635Z,97737.81
2022-09-17T04:54:29.426Z,97742.00
2022-09-17T04:56:56.029Z,97754.94
2022-09-17T04:59:22.581Z,97767.22
2022-09-17T05:01:49.642Z,97783.25
2022-09-17T05:04:16.328Z,97762.75
2022-09-17T05:06:42.936Z,97781.00
2022-09-17T05:09:09.845Z,97776.31
2022-09-17T05:11:36.459Z,97788.97
2022-09-17T05:14:03.042Z,97784.53
2022-09-17T05:16:29.740Z,97790.00
2022-09-17T05:18:57.983Z,97787.72
2022-09-17T05:21:24.905Z,97781.72
2022-09-17T05:23:51.904Z,97776.16
2022-09-17T05:26:18.614Z,97774.63
2022-09-17T05:28:45.186Z,97776.41
2022-09-17T05:31:11.942Z,97777.63
2022-09-17T05:33:38.580Z,97771.28
2022-09-17T05:36:05.320Z,97773.44
2022-09-17T05:38:31.964Z,97776.75
2022-09-17T05:40:58.512Z,97786.47
2022-09-17T05:43:25.304Z,97790.25
2022-09-17T05:45:54.294Z,97803.16
2022-09-17T05:48:20.888Z,97813.84
2022-09-17T05:50:47.463Z,97832.47
2022-09-17T05:53:15.262Z,97831.66
2022-09-17T05:55:41.811Z,97822.22
2022-09-17T05:58:18.642Z,97828.88
2022-09-17T06:00:50.167Z,97826.38
2022-09-17T06:03:18.790Z,97823.47
2022-09-17T06:05:54.009Z,97830.59
2022-09-17T06:08:21.004Z,97834.31
2022-09-17T06:10:47.563Z,97842.72
2022-09-17T06:13:14.217Z,97846.09
2022-09-17T06:15:40.747Z,97841.84
2022-09-17T06:18:07.419Z,97837.50
2022-09-17T06:20:34.057Z,97840.38
2022-09-17T06:23:00.617Z,97833.91
2022-09-17T06:25:27.138Z,97826.91
2022-09-17T06:27:53.713Z,97821.13
2022-09-17T06:30:20.292Z,97823.06
2022-09-17T06:32:46.873Z,97818.50
2022-09-17T06:35:16.594Z,97810.94
2022-09-17T06:37:43.194Z,97807.66
2022-09-17T06:40:10.490Z,97806.91
2022-09-17T06:42:37.130Z,97804.75
2022-09-17T06:45:08.131Z,97790.47
2022-09-17T06:47:36.840Z,97790.63
2022-09-17T06:50:03.863Z,97764.16
2022-09-17T06:52:30.442Z,97758.94
2022-09-17T06:54:57.563Z,97765.97
2022-09-17T06:57:24.111Z,97740.06
2022-09-17T06:59:50.893Z,97733.06
2022-09-17T07:02:17.609Z,97729.81
2022-09-17T07:04:44.505Z,97721.53
2022-09-17T07:07:11.293Z,97704.69
2022-09-17T07:09:37.871Z,97711.00
2022-09-17T07:12:08.019Z,97721.03
2022-09-17T07:14:34.788Z,97746.25
2022-09-17T07:17:01.394Z,97761.09
2022-09-17T07:19:27.917Z,97760.31
2022-09-17T07:21:54.544Z,97771.13
2022-09-17T07:24:21.123Z,97783.41
2022-09-17T07:26:47.704Z,97787.66
2022-09-17T07:29:14.217Z,97776.75
2022-09-17T07:31:40.829Z,97761.19
2022-09-17T07:34:07.505Z,97765.03
2022-09-17T07:36:34.123Z,97792.66
2022-09-17T07:39:00.651Z,97815.47
2022-09-17T07:41:27.241Z,97827.59
2022-09-17T07:43:55.443Z,97835.44
2022-09-17T07:46:22.178Z,97845.56
2022-09-17T07:48:49.573Z,97844.28
2022-09-17T07:51:18.206Z,97852.78
2022-09-17T07:53:44.854Z,97858.00
2022-09-17T07:56:12.106Z,97860.56
2022-09-17T07:58:39.011Z,97865.47
2022-09-17T08:01:11.553Z,97871.25
2022-09-17T08:03:40.069Z,97888.88
2022-09-17T08:06:09.826Z,97894.13
2022-09-17T08:08:37.277Z,97909.38
2022-09-17T08:11:08.193Z,97918.13
2022-09-17T08:13:35.310Z,97918.94
2022-09-17T08:16:05.482Z,97913.75
2022-09-17T08:18:32.922Z,97904.28
2022-09-17T08:21:00.852Z,97894.94
2022-09-17T08:23:28.954Z,97888.13
2022-09-17T08:25:58.170Z,97883.31
2022-09-17T08:28:26.689Z,97891.03
2022-09-17T08:30:54.458Z,97890.94
2022-09-17T08:33:21.699Z,97891.81
2022-09-17T08:35:53.160Z,97897.34
2022-09-17T08:38:21.805Z,97899.59
2022-09-17T08:41:15.161Z,97894.88
2022-09-17T08:44:19.458Z,97899.38
2022-09-17T08:46:50.748Z,97895.28
2022-09-17T08:49:40.913Z,97885.97
2022-09-17T08:52:29.141Z,97875.19
2022-09-17T08:55:15.236Z,97862.69
2022-09-17T08:58:02.706Z,97861.25
2022-09-17T09:00:36.365Z,97865.53
2022-09-17T09:03:38.681Z,97884.09
2022-09-17T09:06:10.555Z,97903.03
2022-09-17T09:08:45.735Z,97912.75
2022-09-17T09:11:31.081Z,97907.00
2022-09-17T09:14:10.384Z,97915.31
2022-09-17T09:16:41.367Z,97904.72
2022-09-17T09:19:26.985Z,97908.50
2022-09-17T09:21:53.490Z,97902.16
2022-09-17T09:24:26.149Z,97904.00
2022-09-17T09:27:20.396Z,97892.13
2022-09-17T09:29:58.576Z,97890.84
2022-09-17T09:32:51.657Z,97878.91
2022-09-17T09:35:23.634Z,97872.75
2022-09-17T09:38:11.279Z,97866.47
2022-09-17T09:40:38.975Z,97866.22
2022-09-17T09:43:19.803Z,97865.22
2022-09-17T09:46:02.754Z,97871.09
2022-09-17T09:48:30.316Z,97873.34
2022-09-17T09:51:18.054Z,97863.28
2022-09-17T09:54:00.514Z,97859.91
2022-09-17T09:56:34.520Z,97870.66
2022-09-17T09:59:01.386Z,97859.50
2022-09-17T10:01:30.291Z,97853.69
2022-09-17T10:03:58.901Z,97853.13
2022-09-17T10:06:30.983Z,97852.31
2022-09-17T10:08:57.528Z,97850.59
2022-09-17T10:11:27.079Z,97869.19
2022-09-17T10:14:13.489Z,97870.66
2022-09-17T10:16:40.350Z,97853.38
2022-09-17T10:19:07.587Z,97857.88
2022-09-17T10:21:40.144Z,97862.16
2022-09-17T10:24:24.609Z,97875.53
2022-09-17T10:26:53.147Z,97867.00
2022-09-17T10:29:21.039Z,97858.53
2022-09-17T10:31:53.814Z,97859.91
2022-09-17T10:34:23.160Z,97848.88
2022-09-17T10:36:50.044Z,97842.56
2022-09-17T10:39:34.238Z,97848.19
2022-09-17T10:42:04.336Z,97851.38
2022-09-17T10:44:34.037Z,97854.88
2022-09-17T10:47:04.404Z,97856.94
2022-09-17T10:49:49.729Z,97863.38
2022-09-17T10:52:34.568Z,97863.69
2022-09-17T10:55:07.527Z,97862.38
2022-09-17T10:57:49.455Z,97867.69
2022-09-17T11:00:19.929Z,97861.88
2022-09-17T11:03:02.722Z,97862.47
2022-09-17T11:05:45.481Z,97856.84
2022-09-17T11:08:20.530Z,97865.53
2022-09-17T11:10:53.982Z,97854.63
2022-09-17T11:13:21.492Z,97837.31
2022-09-17T11:16:18.637Z,97848.06
2022-09-17T11:19:05.488Z,97857.13
2022-09-17T11:21:31.920Z,97854.41
2022-09-17T11:24:14.756Z,97846.25
2022-09-17T11:26:51.741Z,97838.13
2022-09-17T11:29:48.820Z,97837.13
2022-09-17T11:32:39.302Z,97831.84
2022-09-17T11:35:12.093Z,97829.25
2022-09-17T11:37:48.947Z,97828.19
2022-09-17T11:40:24.338Z,97827.94
2022-09-17T11:43:00.316Z,97833.81
2022-09-17T11:45:36.531Z,97838.81
2022-09-17T11:48:12.803Z,97834.56
2022-09-17T11:50:46.078Z,97820.25
2022-09-17T11:53:32.281Z,97829.25
2022-09-17T11:56:02.892Z,97829.50
2022-09-17T11:58:41.230Z,97838.56
2022-09-17T12:01:14.393Z,97830.34
2022-09-17T12:03:49.029Z,97834.22
2022-09-17T12:06:23.034Z,97821.72
2022-09-17T12:09:12.003Z,97816.88
2022-09-17T12:11:51.149Z,97823.81
2022-09-17T12:14:28.031Z,97813.38
2022-09-17T12:17:00.368Z,97808.38
2022-09-17T12:19:48.323Z,97794.88
2022-09-17T12:22:20.334Z,97787.69
2022-09-17T12:24:50.923Z,97778.41
2022-09-17T12:27:32.821Z,97779.25
2022-09-17T12:30:25.888Z,97770.97
2022-09-17T12:33:07.985Z,97753.50
2022-09-17T12:36:06.054Z,97746.31
2022-09-17T12:39:03.306Z,97735.25
2022-09-17T12:41:29.948Z,97723.78
2022-09-17T12:43:58.511Z,97729.69
2022-09-17T12:46:40.292Z,97725.41
2022-09-17T12:49:37.825Z,97736.84
2022-09-17T12:52:28.787Z,97750.50
2022-09-17T12:55:23.190Z,97765.97
2022-09-17T12:57:49.726Z,97775.50
2022-09-17T13:00:17.245Z,97781.56
2022-09-17T13:02:48.081Z,97783.06
2022-09-17T13:05:15.615Z,97805.22
2022-09-17T13:08:09.392Z,97799.75
2022-09-17T13:11:11.307Z,97801.09
2022-09-17T13:13:47.121Z,97801.22
2022-09-17T13:16:17.006Z,97807.00
2022-09-17T13:19:18.334Z,97801.38
2022-09-17T13:22:10.367Z,97806.84
2022-09-17T13:24:37.561Z,97794.91
2022-09-17T13:27:05.907Z,97782.78
2022-09-17T13:29:59.441Z,97785.88
2022-09-17T13:32:47.243Z,97780.44
2022-09-17T13:35:13.797Z,97796.00
2022-09-17T13:37:44.387Z,97787.34
2022-09-17T13:40:41.437Z,97785.25
2022-09-17T13:43:13.601Z,97777.38
2022-09-17T13:46:11.023Z,97775.28
2022-09-17T13:48:46.711Z,97785.75
2022-09-17T13:51:47.236Z,97819.47
2022-09-17T13:54:15.805Z,97805.66
2022-09-17T13:56:46.560Z,97805.47
2022-09-17T13:59:19.363Z,97809.03
2022-09-17T14:02:01.758Z,97823.25
2022-09-17T14:04:43.513Z,97808.38
2022-09-17T14:07:26.426Z,97813.19
2022-09-17T14:10:21.257Z,97807.09
2022-09-17T14:12:50.881Z,97813.44
2022-09-17T14:15:54.960Z,97819.53
2022-09-17T14:18:35.425Z,97826.22
2022-09-17T14:21:15.095Z,97821.97
2022-09-17T14:23:47.355Z,97832.19
2022-09-17T14:26:27.651Z,97826.44
2022-09-17T14:29:15.639Z,97842.59
2022-09-17T14:31:42.441Z,97829.69
2022-09-17T14:34:19.954Z,97835.22
2022-09-17T14:36:47.719Z,97841.72
2022-09-17T14:39:27.134Z,97845.97
2022-09-17T14:41:54.953Z,97842.50
2022-09-17T14:44:26.967Z,97832.56
2022-09-17T14:47:00.813Z,97847.56
2022-09-17T14:49:32.545Z,97842.72
2022-09-17T14:52:01.971Z,97842.59
2022-09-17T14:54:35.298Z,97843.03
2022-09-17T14:57:04.946Z,97840.06
2022-09-17T14:59:32.513Z,97835.44
2022-09-17T15:01:59.729Z,97837.22
2022-09-17T15:04:28.620Z,97838.81
2022-09-17T15:07:12.305Z,97843.50
2022-09-17T15:09:39.020Z,97839.63
2022-09-17T15:12:07.823Z,97840.94
2022-09-17T15:14:39.227Z,97843.25
2022-09-17T15:17:07.193Z,97840.31
2022-09-17T15:19:39.602Z,97837.84
2022-09-17T15:22:07.247Z,97832.97
2022-09-17T15:24:44.728Z,97830.56
2022-09-17T15:27:18.567Z,97833.22
2022-09-17T15:29:50.884Z,97829.53
2022-09-17T15:32:17.726Z,97830.72
2022-09-17T15:34:44.341Z,97828.00
2022-09-17T15:37:20.686Z,97826.06
2022-09-17T15:39:50.839Z,97816.81
2022-09-17T15:42:26.085Z,97824.78
2022-09-17T15:44:52.856Z,97828.88
2022-09-17T15:47:35.593Z,97823.38
2022-09-17T15:50:18.612Z,97821.59
2022-09-17T15:52:45.327Z,97816.00
2022-09-17T15:55:29.521Z,97828.84
2022-09-17T15:57:58.527Z,97819.03
2022-09-17T16:00:26.098Z,97821.69
2022-09-17T16:02:52.993Z,97821.75
2022-09-17T16:05:45.759Z,97827.22
2022-09-17T16:08:22.202Z,97827.97
2022-09-17T16:10:48.870Z,97822.59
2022-09-17T16:13:15.460Z,97828.59
2022-09-17T16:15:42.153Z,97834.06
2022-09-17T16:18:12.738Z,97834.72
2022-09-17T16:20:40.920Z,97832.06
2022-09-17T16:23:07.559Z,97838.16
2022-09-17T16:25:34.616Z,97841.25
2022-09-17T16:28:06.483Z,97849.28
2022-09-17T16:30:33.623Z,97851.41
2022-09-17T16:33:03.554Z,97853.22
2022-09-17T16:35:30.125Z,97857.91
2022-09-17T16:37:57.282Z,97867.00
2022-09-17T16:40:28.294Z,97862.66
2022-09-17T16:42:55.221Z,97871.50
2022-09-17T16:45:25.409Z,97879.38
2022-09-17T16:47:54.755Z,97878.75
2022-09-17T16:50:21.316Z,97873.59
2022-09-17T16:52:47.892Z,97869.75
2022-09-17T16:55:18.254Z,97872.16
2022-09-17T16:57:48.507Z,97867.44
2022-09-17T17:00:19.547Z,97872.16
2022-09-17T17:02:56.059Z,97872.16
2022-09-17T17:05:24.144Z,97869.50
2022-09-17T17:07:50.993Z,97871.13
2022-09-17T17:10:18.229Z,97874.44
2022-09-17T17:12:44.811Z,97878.88
2022-09-17T17:15:11.433Z,97867.94
2022-09-17T17:17:38.347Z,97859.31
2022-09-17T17:20:09.289Z,97867.34
2022-09-17T17:22:37.682Z,97857.16
2022-09-17T17:25:05.987Z,97856.75
2022-09-17T17:27:33.362Z,97861.25
2022-09-17T17:30:02.385Z,97864.22
2022-09-17T17:32:28.976Z,97878.50
2022-09-17T17:34:55.573Z,97891.75
2022-09-17T17:37:23.309Z,97906.13
2022-09-17T17:39:49.884Z,97892.53
2022-09-17T17:42:16.502Z,97893.81
2022-09-17T17:44:43.125Z,97893.88
2022-09-17T17:47:10.353Z,97904.31
2022-09-17T17:49:36.907Z,97905.88
2022-09-17T17:52:03.553Z,97901.44
2022-09-17T17:54:30.203Z,97914.47
2022-09-17T17:56:56.764Z,97920.00
2022-09-17T17:59:23.518Z,97932.41
2022-09-17T18:01:50.311Z,97943.00
2022-09-17T18:04:17.113Z,97941.97
2022-09-17T18:06:43.961Z,97949.91
2022-09-17T18:09:10.517Z,97959.09
2022-09-17T18:11:37.352Z,97962.78
2022-09-17T18:14:04.126Z,97958.75
2022-09-17T18:16:30.976Z,97964.50
2022-09-17T18:18:59.208Z,97969.69
2022-09-17T18:21:26.343Z,97963.50
2022-09-17T18:23:53.273Z,97965.41
2022-09-17T18:26:23.405Z,97972.34
2022-09-17T18:28:50.699Z,97968.19
2022-09-17T18:31:21.021Z,97977.47
2022-09-17T18:33:47.712Z,97976.09
2022-09-17T18:36:14.329Z,97978.75
2022-09-17T18:38:40.861Z,97981.97
2022-09-17T18:41:11.097Z,97980.25
2022-09-17T18:43:37.622Z,97983.91
2022-09-17T18:46:04.789Z,97983.25
2022-09-17T18:48:36.184Z,97986.00
2022-09-17T18:51:06.949Z,98002.66
2022-09-17T18:53:36.758Z,98000.13
2022-09-17T18:56:12.684Z,97999.66
2022-09-17T18:58:39.287Z,98000.94
2022-09-17T19:01:07.230Z,98005.09
2022-09-17T19:03:34.785Z,98014.75
2022-09-17T19:06:02.235Z,98011.31
2022-09-17T19:08:29.015Z,98026.34
2022-09-17T19:10:55.626Z,98029.31
2022-09-17T19:13:22.316Z,98032.41
2022-09-17T19:15:48.963Z,98041.03
2022-09-17T19:18:15.590Z,98035.50
2022-09-17T19:20:42.170Z,98046.44
2022-09-17T19:23:09.144Z,98041.84
2022-09-17T19:25:36.826Z,98042.63
2022-09-17T19:28:04.759Z,98047.38
2022-09-17T19:30:31.770Z,98043.56
2022-09-17T19:32:58.994Z,98048.94
2022-09-17T19:35:26.122Z,98046.91
2022-09-17T19:37:52.980Z,98050.34
2022-09-17T19:40:20.339Z,98057.50
2022-09-17T19:42:53.389Z,98054.72
2022-09-17T19:45:21.903Z,98053.09
2022-09-17T19:47:48.644Z,98033.91
2022-09-17T19:50:16.161Z,98032.84
2022-09-17T19:52:42.736Z,98038.69
2022-09-17T19:55:12.823Z,98063.28
2022-09-17T19:57:39.707Z,98051.97
2022-09-17T20:00:09.067Z,98045.25
2022-09-17T20:02:35.687Z,98036.41
2022-09-17T20:05:02.289Z,98037.91
2022-09-17T20:07:30.067Z,98045.38
2022-09-17T20:09:56.658Z,98046.53
2022-09-17T20:12:23.432Z,98051.13
2022-09-17T20:14:50.031Z,98045.97
2022-09-17T20:17:16.662Z,98034.66
2022-09-17T20:19:43.256Z,98036.97
2022-09-17T20:22:09.811Z,98032.44
2022-09-17T20:24:36.435Z,98044.69
2022-09-17T20:27:02.995Z,98056.19
2022-09-17T20:29:29.550Z,98051.47
2022-09-17T20:31:56.129Z,98052.81
2022-09-17T20:34:22.703Z,98056.47
2022-09-17T20:36:49.250Z,98053.97
2022-09-17T20:39:22.318Z,98051.19
2022-09-17T20:41:49.573Z,98057.78
2022-09-17T20:44:17.504Z,98061.09
2022-09-17T20:46:44.105Z,98044.56
2022-09-17T20:49:10.740Z,98026.56
2022-09-17T20:51:37.360Z,98030.22
2022-09-17T20:54:04.788Z,98020.91
2022-09-17T20:56:33.885Z,98017.63
2022-09-17T20:59:14.430Z,98040.59
2022-09-17T21:01:45.011Z,98038.41
2022-09-17T21:04:14.760Z,98041.88
2022-09-17T21:06:42.838Z,98034.66
2022-09-17T21:09:12.215Z,98029.28
2022-09-17T21:11:38.884Z,98045.28
2022-09-17T21:14:05.820Z,98039.63
2022-09-17T21:16:32.706Z,98036.09
2022-09-17T21:19:01.936Z,98047.00
2022-09-17T21:21:29.216Z,98038.09
2022-09-17T21:24:01.132Z,98045.84
2022-09-17T21:26:28.133Z,98042.75
2022-09-17T21:28:56.155Z,98037.44
2022-09-17T21:31:31.764Z,98033.56
2022-09-17T21:34:00.315Z,98042.03
2022-09-17T21:36:29.224Z,98041.59
2022-09-17T21:38:58.596Z,98027.25
2022-09-17T21:41:26.574Z,98013.31
2022-09-17T21:43:53.803Z,98013.22
2022-09-17T21:46:24.147Z,98014.47
2022-09-17T21:48:54.033Z,98002.88
2022-09-17T21:51:37.567Z,98008.84
2022-09-17T21:54:08.561Z,98002.38
2022-09-17T21:56:35.591Z,98008.97
2022-09-17T21:59:05.294Z,98004.38
2022-09-17T22:01:40.062Z,98009.88
2022-09-17T22:04:09.123Z,98014.16
2022-09-17T22:06:36.758Z,98015.75
2022-09-17T22:09:05.052Z,98001.59
2022-09-17T22:11:34.437Z,98009.28
2022-09-17T22:14:08.707Z,98000.22
2022-09-17T22:16:37.936Z,97996.78
2022-09-17T22:19:06.085Z,97993.09
2022-09-17T22:21:37.221Z,97985.03
2022-09-17T22:24:05.620Z,97983.31
2022-09-17T22:26:34.743Z,97981.69
2022-09-17T22:29:03.665Z,97980.91
2022-09-17T22:31:30.900Z,97975.16
2022-09-17T22:33:57.935Z,97969.09
2022-09-17T22:36:26.495Z,97969.50
2022-09-17T22:38:56.335Z,97966.53
2022-09-17T22:41:24.176Z,97969.88
2022-09-17T22:43:54.622Z,97966.44
2022-09-17T22:46:25.593Z,97965.38
2022-09-17T22:48:53.089Z,97968.50
2022-09-17T22:51:19.854Z,97963.78
2022-09-17T22:53:46.421Z,97962.72
2022-09-17T22:56:16.080Z,97956.78
2022-09-17T22:58:43.681Z,97959.31
2022-09-17T23:01:13.200Z,97958.50
2022-09-17T23:03:40.879Z,97961.28
2022-09-17T23:06:10.680Z,97959.06
2022-09-17T23:08:37.837Z,97963.31
2022-09-17T23:11:06.848Z,97962.53
2022-09-17T23:13:34.938Z,97962.53
2022-09-17T23:16:05.488Z,97960.22
2022-09-17T23:18:32.600Z,97960.81
2022-09-17T23:21:01.770Z,97952.53
2022-09-17T23:23:28.620Z,97952.28
2022-09-17T23:25:55.562Z,97956.91
2022-09-17T23:28:22.495Z,97957.81
2022-09-17T23:30:49.782Z,97957.47
2022-09-17T23:33:16.419Z,97960.56
2022-09-17T23:35:42.946Z,97961.38
2022-09-17T23:38:09.617Z,97953.13
2022-09-17T23:40:36.267Z,97952.78
2022-09-17T23:43:02.884Z,97946.22
2022-09-17T23:45:29.466Z,97955.53
2022-09-17T23:47:56.408Z,97947.59
2022-09-17T23:50:23.039Z,97948.63
2022-09-17T23:52:49.561Z,97955.88
2022-09-17T23:55:16.136Z,97949.34
2022-09-17T23:57:42.766Z,97948.63
